sensor_id;sensor_type;location;lat;lon;timestamp;pressure;altitude;pressure_sealevel;temperature;humidity
77003;BME280;65939;50.060;14.288;2023-06-04T00:01:59;97543.28;;;11.84;58.70
77003;BME280;65939;50.060;14.288;2023-06-04T00:04:00;97551.44;;;11.81;58.91
77003;BME280;65939;50.060;14.288;2023-06-04T00:06:02;97549.94;;;11.79;58.85
77003;BME280;65939;50.060;14.288;2023-06-04T00:08:03;97543.22;;;11.76;58.48
77003;BME280;65939;50.060;14.288;2023-06-04T00:10:04;97541.88;;;11.72;59.28
77003;BME280;65939;50.060;14.288;2023-06-04T00:12:05;97544.00;;;11.68;58.67
77003;BME280;65939;50.060;14.288;2023-06-04T00:14:06;97542.50;;;11.66;59.02
77003;BME280;65939;50.060;14.288;2023-06-04T00:16:07;97538.56;;;11.62;59.08
77003;BME280;65939;50.060;14.288;2023-06-04T00:18:08;97543.16;;;11.60;59.98
77003;BME280;65939;50.060;14.288;2023-06-04T00:20:09;97546.22;;;11.55;59.05
77003;BME280;65939;50.060;14.288;2023-06-04T00:22:10;97534.44;;;11.51;58.87
77003;BME280;65939;50.060;14.288;2023-06-04T00:24:11;97529.50;;;11.48;60.01
77003;BME280;65939;50.060;14.288;2023-06-04T00:26:12;97529.00;;;11.44;59.47
77003;BME280;65939;50.060;14.288;2023-06-04T00:28:13;97527.50;;;11.42;59.54
77003;BME280;65939;50.060;14.288;2023-06-04T00:30:14;97529.59;;;11.38;60.13
77003;BME280;65939;50.060;14.288;2023-06-04T00:32:15;97529.94;;;11.35;60.56
77003;BME280;65939;50.060;14.288;2023-06-04T00:34:17;97526.81;;;11.32;60.16
77003;BME280;65939;50.060;14.288;2023-06-04T00:36:18;97524.50;;;11.29;59.97
77003;BME280;65939;50.060;14.288;2023-06-04T00:38:18;97530.84;;;11.26;60.59
77003;BME280;65939;50.060;14.288;2023-06-04T00:40:19;97528.41;;;11.24;60.48
77003;BME280;65939;50.060;14.288;2023-06-04T00:42:20;97526.22;;;11.20;60.85
77003;BME280;65939;50.060;14.288;2023-06-04T00:44:20;97522.97;;;11.18;60.34
77003;BME280;65939;50.060;14.288;2023-06-04T00:46:25;97518.84;;;11.15;61.09
77003;BME280;65939;50.060;14.288;2023-06-04T00:48:27;97526.00;;;11.13;61.09
77003;BME280;65939;50.060;14.288;2023-06-04T00:50:27;97519.47;;;11.09;60.74
77003;BME280;65939;50.060;14.288;2023-06-04T00:52:28;97516.19;;;11.07;61.42
77003;BME280;65939;50.060;14.288;2023-06-04T00:54:29;97519.94;;;11.05;61.40
77003;BME280;65939;50.060;14.288;2023-06-04T00:56:30;97517.47;;;11.03;61.60
77003;BME280;65939;50.060;14.288;2023-06-04T00:58:33;97521.88;;;11.02;61.71
77003;BME280;65939;50.060;14.288;2023-06-04T01:00:33;97518.59;;;11.00;61.47
77003;BME280;65939;50.060;14.288;2023-06-04T01:02:38;97522.31;;;10.98;61.64
77003;BME280;65939;50.060;14.288;2023-06-04T01:06:50;97518.38;;;10.94;62.13
77003;BME280;65939;50.060;14.288;2023-06-04T01:08:57;97521.16;;;10.92;61.58
77003;BME280;65939;50.060;14.288;2023-06-04T01:10:58;97518.84;;;10.89;62.88
77003;BME280;65939;50.060;14.288;2023-06-04T01:12:59;97519.16;;;10.86;61.99
77003;BME280;65939;50.060;14.288;2023-06-04T01:15:01;97520.13;;;10.85;62.34
77003;BME280;65939;50.060;14.288;2023-06-04T01:17:04;97512.59;;;10.82;62.41
77003;BME280;65939;50.060;14.288;2023-06-04T01:19:29;97513.88;;;10.78;62.29
77003;BME280;65939;50.060;14.288;2023-06-04T01:21:38;97518.41;;;10.76;62.74
77003;BME280;65939;50.060;14.288;2023-06-04T01:23:49;97513.50;;;10.73;62.02
77003;BME280;65939;50.060;14.288;2023-06-04T01:25:58;97514.75;;;10.69;63.01
77003;BME280;65939;50.060;14.288;2023-06-04T01:28:04;97517.84;;;10.64;62.95
77003;BME280;65939;50.060;14.288;2023-06-04T01:30:06;97522.53;;;10.61;63.23
77003;BME280;65939;50.060;14.288;2023-06-04T01:32:08;97512.53;;;10.56;63.40
77003;BME280;65939;50.060;14.288;2023-06-04T01:34:09;97518.19;;;10.51;63.68
77003;BME280;65939;50.060;14.288;2023-06-04T01:36:10;97522.09;;;10.47;63.49
77003;BME280;65939;50.060;14.288;2023-06-04T01:38:13;97516.47;;;10.42;63.53
77003;BME280;65939;50.060;14.288;2023-06-04T01:40:14;97514.31;;;10.38;63.83
77003;BME280;65939;50.060;14.288;2023-06-04T01:42:14;97511.06;;;10.36;64.01
77003;BME280;65939;50.060;14.288;2023-06-04T01:44:15;97506.25;;;10.31;63.83
77003;BME280;65939;50.060;14.288;2023-06-04T01:46:16;97509.16;;;10.28;63.62
77003;BME280;65939;50.060;14.288;2023-06-04T01:48:16;97510.28;;;10.25;63.85
77003;BME280;65939;50.060;14.288;2023-06-04T01:50:18;97508.59;;;10.24;64.04
77003;BME280;65939;50.060;14.288;2023-06-04T01:52:19;97507.13;;;10.22;64.29
77003;BME280;65939;50.060;14.288;2023-06-04T01:54:21;97506.44;;;10.20;64.34
77003;BME280;65939;50.060;14.288;2023-06-04T01:56:22;97509.34;;;10.17;64.33
77003;BME280;65939;50.060;14.288;2023-06-04T01:58:23;97502.66;;;10.14;64.02
77003;BME280;65939;50.060;14.288;2023-06-04T02:00:27;97507.19;;;10.12;64.25
77003;BME280;65939;50.060;14.288;2023-06-04T02:02:27;97504.75;;;10.11;63.92
77003;BME280;65939;50.060;14.288;2023-06-04T02:04:28;97512.84;;;10.07;64.23
77003;BME280;65939;50.060;14.288;2023-06-04T02:06:29;97513.16;;;10.04;64.41
77003;BME280;65939;50.060;14.288;2023-06-04T02:08:31;97503.00;;;10.01;63.82
77003;BME280;65939;50.060;14.288;2023-06-04T02:10:33;97514.53;;;9.99;65.12
77003;BME280;65939;50.060;14.288;2023-06-04T02:12:39;97507.84;;;9.96;65.09
77003;BME280;65939;50.060;14.288;2023-06-04T02:14:41;97507.16;;;9.94;64.96
77003;BME280;65939;50.060;14.288;2023-06-04T02:16:42;97507.44;;;9.91;65.54
77003;BME280;65939;50.060;14.288;2023-06-04T02:18:43;97508.56;;;9.89;65.37
77003;BME280;65939;50.060;14.288;2023-06-04T02:20:44;97508.88;;;9.86;65.49
77003;BME280;65939;50.060;14.288;2023-06-04T02:22:45;97516.00;;;9.83;65.70
77003;BME280;65939;50.060;14.288;2023-06-04T02:24:46;97516.28;;;9.80;65.95
77003;BME280;65939;50.060;14.288;2023-06-04T02:26:48;97515.75;;;9.77;65.92
77003;BME280;65939;50.060;14.288;2023-06-04T02:28:49;97516.03;;;9.74;66.21
77003;BME280;65939;50.060;14.288;2023-06-04T02:30:49;97517.31;;;9.70;65.84
77003;BME280;65939;50.060;14.288;2023-06-04T02:32:50;97521.97;;;9.66;66.16
77003;BME280;65939;50.060;14.288;2023-06-04T02:34:51;97522.41;;;9.62;66.50
77003;BME280;65939;50.060;14.288;2023-06-04T02:36:51;97526.28;;;9.57;66.51
77003;BME280;65939;50.060;14.288;2023-06-04T02:38:52;97529.28;;;9.53;67.09
77003;BME280;65939;50.060;14.288;2023-06-04T02:40:53;97521.91;;;9.48;66.79
77003;BME280;65939;50.060;14.288;2023-06-04T02:42:55;97528.38;;;9.44;67.26
77003;BME280;65939;50.060;14.288;2023-06-04T02:44:56;97525.25;;;9.41;66.63
77003;BME280;65939;50.060;14.288;2023-06-04T02:46:57;97528.28;;;9.36;66.93
77003;BME280;65939;50.060;14.288;2023-06-04T02:48:58;97524.16;;;9.33;67.69
77003;BME280;65939;50.060;14.288;2023-06-04T02:50:59;97526.09;;;9.31;67.52
77003;BME280;65939;50.060;14.288;2023-06-04T02:53:01;97522.81;;;9.29;67.80
77003;BME280;65939;50.060;14.288;2023-06-04T02:55:01;97533.34;;;9.28;67.79
77003;BME280;65939;50.060;14.288;2023-06-04T02:57:04;97529.94;;;9.27;67.12
77003;BME280;65939;50.060;14.288;2023-06-04T02:59:05;97534.31;;;9.27;67.79
77003;BME280;65939;50.060;14.288;2023-06-04T03:01:06;97536.94;;;9.27;66.93
77003;BME280;65939;50.060;14.288;2023-06-04T03:03:07;97542.31;;;9.25;67.90
77003;BME280;65939;50.060;14.288;2023-06-04T03:05:10;97532.81;;;9.24;67.28
77003;BME280;65939;50.060;14.288;2023-06-04T03:07:11;97540.63;;;9.24;67.75
77003;BME280;65939;50.060;14.288;2023-06-04T03:09:11;97541.44;;;9.25;67.74
77003;BME280;65939;50.060;14.288;2023-06-04T03:11:13;97538.84;;;9.25;68.07
77003;BME280;65939;50.060;14.288;2023-06-04T03:13:14;97547.50;;;9.25;67.37
77003;BME280;65939;50.060;14.288;2023-06-04T03:15:14;97547.63;;;9.24;67.52
77003;BME280;65939;50.060;14.288;2023-06-04T03:17:15;97552.03;;;9.23;67.50
77003;BME280;65939;50.060;14.288;2023-06-04T03:19:15;97548.88;;;9.20;67.90
77003;BME280;65939;50.060;14.288;2023-06-04T03:21:17;97552.56;;;9.17;68.00
77003;BME280;65939;50.060;14.288;2023-06-04T03:23:18;97553.69;;;9.15;68.37
77003;BME280;65939;50.060;14.288;2023-06-04T03:25:19;97560.00;;;9.12;68.25
77003;BME280;65939;50.060;14.288;2023-06-04T03:27:19;97560.28;;;9.09;68.83
77003;BME280;65939;50.060;14.288;2023-06-04T03:29:20;97562.88;;;9.09;68.96
77003;BME280;65939;50.060;14.288;2023-06-04T03:31:21;97565.63;;;9.07;68.98
77003;BME280;65939;50.060;14.288;2023-06-04T03:33:22;97566.72;;;9.05;69.07
77003;BME280;65939;50.060;14.288;2023-06-04T03:35:23;97568.38;;;9.06;69.43
77003;BME280;65939;50.060;14.288;2023-06-04T03:37:23;97567.69;;;9.04;69.11
77003;BME280;65939;50.060;14.288;2023-06-04T03:39:24;97573.72;;;9.04;69.50
77003;BME280;65939;50.060;14.288;2023-06-04T03:41:25;97574.66;;;9.03;69.08
77003;BME280;65939;50.060;14.288;2023-06-04T03:43:26;97568.53;;;9.04;69.66
77003;BME280;65939;50.060;14.288;2023-06-04T03:45:27;97569.34;;;9.05;69.28
77003;BME280;65939;50.060;14.288;2023-06-04T03:47:27;97576.06;;;9.07;69.10
77003;BME280;65939;50.060;14.288;2023-06-04T03:49:28;97571.66;;;9.08;70.06
77003;BME280;65939;50.060;14.288;2023-06-04T03:51:29;97575.09;;;9.08;69.42
77003;BME280;65939;50.060;14.288;2023-06-04T03:53:29;97564.53;;;9.10;68.86
77003;BME280;65939;50.060;14.288;2023-06-04T03:55:30;97574.66;;;9.13;70.21
77003;BME280;65939;50.060;14.288;2023-06-04T03:57:32;97572.75;;;9.15;70.03
77003;BME280;65939;50.060;14.288;2023-06-04T03:59:33;97575.22;;;9.17;69.38
77003;BME280;65939;50.060;14.288;2023-06-04T04:01:33;97576.72;;;9.19;70.09
77003;BME280;65939;50.060;14.288;2023-06-04T04:03:34;97575.31;;;9.25;69.80
77003;BME280;65939;50.060;14.288;2023-06-04T04:05:35;97572.44;;;9.28;69.47
77003;BME280;65939;50.060;14.288;2023-06-04T04:07:36;97579.97;;;9.31;69.67
77003;BME280;65939;50.060;14.288;2023-06-04T04:09:37;97576.00;;;9.37;69.36
77003;BME280;65939;50.060;14.288;2023-06-04T04:11:38;97583.09;;;9.44;69.63
77003;BME280;65939;50.060;14.288;2023-06-04T04:13:38;97578.16;;;9.51;69.58
77003;BME280;65939;50.060;14.288;2023-06-04T04:15:39;97576.75;;;9.56;69.40
77003;BME280;65939;50.060;14.288;2023-06-04T04:17:39;97577.00;;;9.63;69.17
77003;BME280;65939;50.060;14.288;2023-06-04T04:19:41;97574.53;;;9.71;69.35
77003;BME280;65939;50.060;14.288;2023-06-04T04:21:42;97579.03;;;9.79;69.64
77003;BME280;65939;50.060;14.288;2023-06-04T04:23:45;97587.91;;;9.86;68.97
77003;BME280;65939;50.060;14.288;2023-06-04T04:25:45;97586.38;;;9.93;69.14
77003;BME280;65939;50.060;14.288;2023-06-04T04:27:47;97571.91;;;9.99;68.83
77003;BME280;65939;50.060;14.288;2023-06-04T04:29:48;97575.59;;;10.06;68.19
77003;BME280;65939;50.060;14.288;2023-06-04T04:31:50;97568.81;;;10.13;68.26
77003;BME280;65939;50.060;14.288;2023-06-04T04:33:51;97574.97;;;10.22;68.06
77003;BME280;65939;50.060;14.288;2023-06-04T04:35:52;97571.50;;;10.31;67.73
77003;BME280;65939;50.060;14.288;2023-06-04T04:37:53;97577.47;;;10.41;67.96
77003;BME280;65939;50.060;14.288;2023-06-04T04:39:54;97578.53;;;10.48;66.59
77003;BME280;65939;50.060;14.288;2023-06-04T04:41:55;97577.13;;;10.54;66.36
77003;BME280;65939;50.060;14.288;2023-06-04T04:44:05;97580.78;;;10.61;66.42
77003;BME280;65939;50.060;14.288;2023-06-04T04:46:06;97579.22;;;10.68;66.76
77003;BME280;65939;50.060;14.288;2023-06-04T04:48:07;97574.88;;;10.77;66.80
77003;BME280;65939;50.060;14.288;2023-06-04T04:50:07;97573.03;;;10.87;65.14
77003;BME280;65939;50.060;14.288;2023-06-04T04:52:08;97575.56;;;10.97;65.74
77003;BME280;65939;50.060;14.288;2023-06-04T04:54:09;97582.34;;;11.08;65.42
77003;BME280;65939;50.060;14.288;2023-06-04T04:56:09;97570.00;;;11.18;64.55
77003;BME280;65939;50.060;14.288;2023-06-04T04:58:10;97583.81;;;11.28;65.89
77003;BME280;65939;50.060;14.288;2023-06-04T05:00:11;97576.66;;;11.38;65.57
77003;BME280;65939;50.060;14.288;2023-06-04T05:02:12;97577.84;;;11.44;65.06
77003;BME280;65939;50.060;14.288;2023-06-04T05:04:13;97579.19;;;11.48;65.21
77003;BME280;65939;50.060;14.288;2023-06-04T05:06:13;97584.78;;;11.53;64.75
77003;BME280;65939;50.060;14.288;2023-06-04T05:08:14;97579.38;;;11.55;64.75
77003;BME280;65939;50.060;14.288;2023-06-04T05:10:16;97592.00;;;11.59;65.19
77003;BME280;65939;50.060;14.288;2023-06-04T05:12:17;97590.72;;;11.63;65.12
77003;BME280;65939;50.060;14.288;2023-06-04T05:14:19;97595.31;;;11.69;64.76
77003;BME280;65939;50.060;14.288;2023-06-04T05:16:19;97595.53;;;11.76;65.71
77003;BME280;65939;50.060;14.288;2023-06-04T05:18:20;97593.94;;;11.83;66.36
77003;BME280;65939;50.060;14.288;2023-06-04T05:20:22;97592.34;;;11.90;66.41
77003;BME280;65939;50.060;14.288;2023-06-04T05:22:23;97598.31;;;12.01;65.07
77003;BME280;65939;50.060;14.288;2023-06-04T05:24:26;97600.63;;;12.12;64.94
77003;BME280;65939;50.060;14.288;2023-06-04T05:26:26;97599.53;;;12.22;64.19
77003;BME280;65939;50.060;14.288;2023-06-04T05:28:28;97597.28;;;12.36;65.19
77003;BME280;65939;50.060;14.288;2023-06-04T05:30:29;97589.13;;;12.47;63.88
77003;BME280;65939;50.060;14.288;2023-06-04T05:32:32;97586.69;;;12.54;62.26
77003;BME280;65939;50.060;14.288;2023-06-04T05:34:33;97585.56;;;12.64;62.10
77003;BME280;65939;50.060;14.288;2023-06-04T05:36:36;97598.34;;;12.76;61.96
77003;BME280;65939;50.060;14.288;2023-06-04T05:38:37;97598.34;;;12.84;60.95
77003;BME280;65939;50.060;14.288;2023-06-04T05:40:38;97595.59;;;12.93;61.74
77003;BME280;65939;50.060;14.288;2023-06-04T05:42:40;97604.28;;;13.02;60.45
77003;BME280;65939;50.060;14.288;2023-06-04T05:44:41;97608.72;;;13.10;59.25
77003;BME280;65939;50.060;14.288;2023-06-04T05:46:42;97602.66;;;13.17;59.18
77003;BME280;65939;50.060;14.288;2023-06-04T05:48:42;97607.91;;;13.26;59.06
77003;BME280;65939;50.060;14.288;2023-06-04T05:50:43;97606.13;;;13.34;59.19
77003;BME280;65939;50.060;14.288;2023-06-04T05:52:44;97611.34;;;13.43;58.17
77003;BME280;65939;50.060;14.288;2023-06-04T05:54:45;97604.75;;;13.55;59.11
77003;BME280;65939;50.060;14.288;2023-06-04T05:56:45;97603.78;;;13.64;58.64
77003;BME280;65939;50.060;14.288;2023-06-04T05:58:51;97612.28;;;13.74;58.28
77003;BME280;65939;50.060;14.288;2023-06-04T06:00:52;97608.81;;;13.82;57.93
77003;BME280;65939;50.060;14.288;2023-06-04T06:02:53;97616.19;;;13.86;57.65
77003;BME280;65939;50.060;14.288;2023-06-04T06:04:54;97611.25;;;13.92;57.49
77003;BME280;65939;50.060;14.288;2023-06-04T06:06:54;97613.19;;;13.98;58.08
77003;BME280;65939;50.060;14.288;2023-06-04T06:08:55;97615.16;;;14.04;57.36
77003;BME280;65939;50.060;14.288;2023-06-04T06:10:56;97623.69;;;14.06;57.20
77003;BME280;65939;50.060;14.288;2023-06-04T06:12:57;97623.97;;;14.11;57.41
77003;BME280;65939;50.060;14.288;2023-06-04T06:14:57;97623.13;;;14.19;56.97
77003;BME280;65939;50.060;14.288;2023-06-04T06:16:58;97620.00;;;14.23;57.31
77003;BME280;65939;50.060;14.288;2023-06-04T06:19:00;97622.59;;;14.31;56.97
77003;BME280;65939;50.060;14.288;2023-06-04T06:21:01;97623.22;;;14.42;57.11
77003;BME280;65939;50.060;14.288;2023-06-04T06:23:07;97624.47;;;14.54;56.50
77003;BME280;65939;50.060;14.288;2023-06-04T06:25:08;97619.03;;;14.64;56.10
77003;BME280;65939;50.060;14.288;2023-06-04T06:27:10;97625.03;;;14.72;56.54
77003;BME280;65939;50.060;14.288;2023-06-04T06:29:10;97632.72;;;14.82;56.17
77003;BME280;65939;50.060;14.288;2023-06-04T06:31:11;97626.22;;;14.93;56.25
77003;BME280;65939;50.060;14.288;2023-06-04T06:33:12;97628.16;;;14.99;55.09
77003;BME280;65939;50.060;14.288;2023-06-04T06:35:12;97629.38;;;15.11;55.55
77003;BME280;65939;50.060;14.288;2023-06-04T06:37:13;97626.72;;;15.19;55.32
77003;BME280;65939;50.060;14.288;2023-06-04T06:39:14;97635.34;;;15.28;54.77
77003;BME280;65939;50.060;14.288;2023-06-04T06:41:15;97638.56;;;15.38;55.23
77003;BME280;65939;50.060;14.288;2023-06-04T06:43:15;97626.13;;;15.47;54.57
77003;BME280;65939;50.060;14.288;2023-06-04T06:45:18;97632.84;;;15.49;53.93
77003;BME280;65939;50.060;14.288;2023-06-04T06:47:19;97635.25;;;15.59;55.06
77003;BME280;65939;50.060;14.288;2023-06-04T06:49:20;97638.94;;;15.73;55.10
77003;BME280;65939;50.060;14.288;2023-06-04T06:51:21;97633.13;;;15.77;54.00
77003;BME280;65939;50.060;14.288;2023-06-04T06:53:21;97640.13;;;15.85;55.04
77003;BME280;65939;50.060;14.288;2023-06-04T06:55:22;97638.41;;;15.92;54.17
77003;BME280;65939;50.060;14.288;2023-06-04T06:57:23;97634.50;;;16.03;53.76
77003;BME280;65939;50.060;14.288;2023-06-04T06:59:24;97646.69;;;16.19;54.27
77003;BME280;65939;50.060;14.288;2023-06-04T07:01:25;97640.13;;;16.30;53.50
77003;BME280;65939;50.060;14.288;2023-06-04T07:03:27;97649.75;;;16.37;53.46
77003;BME280;65939;50.060;14.288;2023-06-04T07:05:27;97641.75;;;16.45;53.82
77003;BME280;65939;50.060;14.288;2023-06-04T07:07:28;97638.91;;;16.47;53.08
77003;BME280;65939;50.060;14.288;2023-06-04T07:09:28;97643.91;;;16.57;52.79
77003;BME280;65939;50.060;14.288;2023-06-04T07:11:29;97640.53;;;16.63;54.08
77003;BME280;65939;50.060;14.288;2023-06-04T07:13:30;97651.97;;;16.70;52.96
77003;BME280;65939;50.060;14.288;2023-06-04T07:15:35;97646.81;;;16.77;52.61
77003;BME280;65939;50.060;14.288;2023-06-04T07:17:36;97650.50;;;16.82;52.59
77003;BME280;65939;50.060;14.288;2023-06-04T07:19:36;97649.75;;;16.88;53.65
77003;BME280;65939;50.060;14.288;2023-06-04T07:21:37;97651.47;;;16.96;52.65
77003;BME280;65939;50.060;14.288;2023-06-04T07:23:38;97646.81;;;16.98;52.58
77003;BME280;65939;50.060;14.288;2023-06-04T07:25:38;97646.97;;;17.11;53.17
77003;BME280;65939;50.060;14.288;2023-06-04T07:27:39;97648.47;;;17.20;52.39
77003;BME280;65939;50.060;14.288;2023-06-04T07:29:42;97649.84;;;17.38;52.75
77003;BME280;65939;50.060;14.288;2023-06-04T07:31:43;97652.22;;;17.54;51.98
77003;BME280;65939;50.060;14.288;2023-06-04T07:33:44;97649.66;;;17.67;51.25
77003;BME280;65939;50.060;14.288;2023-06-04T07:35:44;97648.91;;;17.74;50.58
77003;BME280;65939;50.060;14.288;2023-06-04T07:37:45;97655.09;;;17.81;50.91
77003;BME280;65939;50.060;14.288;2023-06-04T07:39:48;97657.97;;;17.86;50.88
77003;BME280;65939;50.060;14.288;2023-06-04T07:41:48;97653.47;;;17.80;50.43
77003;BME280;65939;50.060;14.288;2023-06-04T07:43:49;97657.34;;;17.84;50.33
77003;BME280;65939;50.060;14.288;2023-06-04T07:45:50;97659.75;;;17.79;50.32
77003;BME280;65939;50.060;14.288;2023-06-04T07:47:51;97652.22;;;17.76;50.38
77003;BME280;65939;50.060;14.288;2023-06-04T07:49:51;97654.66;;;17.77;50.12
77003;BME280;65939;50.060;14.288;2023-06-04T07:51:52;97653.69;;;17.85;51.24
77003;BME280;65939;50.060;14.288;2023-06-04T07:53:53;97655.94;;;17.88;50.88
77003;BME280;65939;50.060;14.288;2023-06-04T07:55:54;97650.28;;;17.91;50.67
77003;BME280;65939;50.060;14.288;2023-06-04T07:57:55;97647.72;;;18.04;50.49
77003;BME280;65939;50.060;14.288;2023-06-04T07:59:56;97641.13;;;18.22;49.64
77003;BME280;65939;50.060;14.288;2023-06-04T08:01:58;97648.09;;;18.36;49.81
77003;BME280;65939;50.060;14.288;2023-06-04T08:03:58;97640.63;;;18.53;49.26
77003;BME280;65939;50.060;14.288;2023-06-04T08:05:59;97646.84;;;18.73;49.38
77003;BME280;65939;50.060;14.288;2023-06-04T08:08:00;97643.66;;;18.91;48.57
77003;BME280;65939;50.060;14.288;2023-06-04T08:10:01;97654.28;;;19.04;47.99
77003;BME280;65939;50.060;14.288;2023-06-04T08:12:03;97645.53;;;19.17;48.22
77003;BME280;65939;50.060;14.288;2023-06-04T08:14:04;97644.94;;;19.22;47.09
77003;BME280;65939;50.060;14.288;2023-06-04T08:16:05;97645.53;;;19.24;47.15
77003;BME280;65939;50.060;14.288;2023-06-04T08:18:06;97641.88;;;19.31;46.68
77003;BME280;65939;50.060;14.288;2023-06-04T08:20:06;97644.34;;;19.33;46.83
77003;BME280;65939;50.060;14.288;2023-06-04T08:22:07;97644.75;;;19.36;46.41
77003;BME280;65939;50.060;14.288;2023-06-04T08:24:09;97647.19;;;19.45;46.45
77003;BME280;65939;50.060;14.288;2023-06-04T08:26:10;97635.97;;;19.49;45.75
77003;BME280;65939;50.060;14.288;2023-06-04T08:28:13;97646.16;;;19.59;45.89
77003;BME280;65939;50.060;14.288;2023-06-04T08:30:14;97640.09;;;19.72;45.82
77003;BME280;65939;50.060;14.288;2023-06-04T08:32:14;97641.50;;;19.81;46.00
77003;BME280;65939;50.060;14.288;2023-06-04T08:34:15;97643.31;;;19.87;46.85
77003;BME280;65939;50.060;14.288;2023-06-04T08:36:16;97644.13;;;19.94;45.93
77003;BME280;65939;50.060;14.288;2023-06-04T08:38:17;97643.31;;;19.94;45.27
77003;BME280;65939;50.060;14.288;2023-06-04T08:40:17;97637.41;;;19.85;44.36
77003;BME280;65939;50.060;14.288;2023-06-04T08:42:22;97642.72;;;19.85;45.40
77003;BME280;65939;50.060;14.288;2023-06-04T08:44:28;97646.78;;;19.94;46.26
77003;BME280;65939;50.060;14.288;2023-06-04T08:46:31;97646.56;;;20.09;45.62
77003;BME280;65939;50.060;14.288;2023-06-04T08:48:32;97648.16;;;20.17;44.95
77003;BME280;65939;50.060;14.288;2023-06-04T08:50:34;97652.06;;;20.21;44.47
77003;BME280;65939;50.060;14.288;2023-06-04T08:52:37;97651.59;;;20.30;44.46
77003;BME280;65939;50.060;14.288;2023-06-04T08:54:38;97648.94;;;20.37;43.48
77003;BME280;65939;50.060;14.288;2023-06-04T08:56:39;97645.91;;;20.20;43.87
77003;BME280;65939;50.060;14.288;2023-06-04T08:58:41;97652.63;;;20.23;44.10
77003;BME280;65939;50.060;14.288;2023-06-04T09:00:43;97653.03;;;20.33;44.53
77003;BME280;65939;50.060;14.288;2023-06-04T09:02:45;97651.56;;;20.44;44.15
77003;BME280;65939;50.060;14.288;2023-06-04T09:04:47;97649.31;;;20.54;44.15
77003;BME280;65939;50.060;14.288;2023-06-04T09:06:48;97647.84;;;20.65;43.67
77003;BME280;65939;50.060;14.288;2023-06-04T09:08:49;97653.13;;;20.71;44.13
77003;BME280;65939;50.060;14.288;2023-06-04T09:10:53;97645.72;;;20.80;44.20
77003;BME280;65939;50.060;14.288;2023-06-04T09:12:57;97650.97;;;20.93;43.53
77003;BME280;65939;50.060;14.288;2023-06-04T09:15:03;97656.69;;;20.90;42.88
77003;BME280;65939;50.060;14.288;2023-06-04T09:17:04;97655.50;;;20.86;42.79
77003;BME280;65939;50.060;14.288;2023-06-04T09:19:05;97650.97;;;20.93;42.65
77003;BME280;65939;50.060;14.288;2023-06-04T09:21:08;97659.09;;;20.98;42.36
77003;BME280;65939;50.060;14.288;2023-06-04T09:23:14;97655.19;;;21.01;42.03
77003;BME280;65939;50.060;14.288;2023-06-04T09:25:26;97649.25;;;21.05;41.81
77003;BME280;65939;50.060;14.288;2023-06-04T09:27:37;97660.91;;;21.04;41.46
77003;BME280;65939;50.060;14.288;2023-06-04T09:29:48;97652.91;;;21.11;42.50
77003;BME280;65939;50.060;14.288;2023-06-04T09:31:59;97654.44;;;21.25;41.86
77003;BME280;65939;50.060;14.288;2023-06-04T09:33:59;97650.31;;;21.36;41.97
77003;BME280;65939;50.060;14.288;2023-06-04T09:36:00;97653.06;;;21.16;41.51
77003;BME280;65939;50.060;14.288;2023-06-04T09:38:01;97660.13;;;20.97;41.09
77003;BME280;65939;50.060;14.288;2023-06-04T09:40:02;97650.63;;;20.76;41.03
77003;BME280;65939;50.060;14.288;2023-06-04T09:42:05;97653.97;;;20.59;42.09
77003;BME280;65939;50.060;14.288;2023-06-04T09:44:06;97654.59;;;20.61;42.45
77003;BME280;65939;50.060;14.288;2023-06-04T09:46:13;97659.28;;;20.59;42.59
77003;BME280;65939;50.060;14.288;2023-06-04T09:48:21;97654.56;;;20.67;42.96
77003;BME280;65939;50.060;14.288;2023-06-04T09:50:26;97658.16;;;20.86;43.56
77003;BME280;65939;50.060;14.288;2023-06-04T09:52:34;97655.56;;;21.11;43.06
77003;BME280;65939;50.060;14.288;2023-06-04T09:54:36;97655.25;;;21.26;42.23
77003;BME280;65939;50.060;14.288;2023-06-04T09:56:41;97649.56;;;21.22;41.81
77003;BME280;65939;50.060;14.288;2023-06-04T09:58:44;97651.63;;;21.20;42.07
77003;BME280;65939;50.060;14.288;2023-06-04T10:00:46;97654.09;;;21.15;41.54
77003;BME280;65939;50.060;14.288;2023-06-04T10:02:48;97658.69;;;20.95;42.03
77003;BME280;65939;50.060;14.288;2023-06-04T10:04:54;97641.06;;;20.69;41.48
77003;BME280;65939;50.060;14.288;2023-06-04T10:06:59;97649.28;;;20.61;42.79
77003;BME280;65939;50.060;14.288;2023-06-04T10:09:08;97650.28;;;20.66;42.04
77003;BME280;65939;50.060;14.288;2023-06-04T10:11:11;97642.72;;;20.63;41.19
77003;BME280;65939;50.060;14.288;2023-06-04T10:13:18;97651.31;;;20.59;42.31
77003;BME280;65939;50.060;14.288;2023-06-04T10:15:19;97649.44;;;20.72;42.22
77003;BME280;65939;50.060;14.288;2023-06-04T10:17:23;97650.59;;;20.83;41.29
77003;BME280;65939;50.060;14.288;2023-06-04T10:19:27;97643.44;;;20.84;41.40
77003;BME280;65939;50.060;14.288;2023-06-04T10:21:32;97643.25;;;20.85;41.14
77003;BME280;65939;50.060;14.288;2023-06-04T10:23:35;97649.16;;;20.87;41.40
77003;BME280;65939;50.060;14.288;2023-06-04T10:25:37;97648.09;;;20.95;41.04
77003;BME280;65939;50.060;14.288;2023-06-04T10:27:38;97646.66;;;20.99;41.52
77003;BME280;65939;50.060;14.288;2023-06-04T10:29:39;97646.19;;;21.02;41.37
77003;BME280;65939;50.060;14.288;2023-06-04T10:31:41;97637.44;;;21.01;41.93
77003;BME280;65939;50.060;14.288;2023-06-04T10:33:43;97639.84;;;21.10;40.35
77003;BME280;65939;50.060;14.288;2023-06-04T10:35:44;97642.75;;;21.01;40.50
77003;BME280;65939;50.060;14.288;2023-06-04T10:37:45;97636.63;;;21.01;40.76
77003;BME280;65939;50.060;14.288;2023-06-04T10:39:54;97640.91;;;21.02;40.28
77003;BME280;65939;50.060;14.288;2023-06-04T10:44:02;97628.38;;;21.09;39.79